sensor_id;sensor_type;location;lat;lon;timestamp;pressure;altitude;pressure_sealevel;temperature;humidity
22031;BME280;11179;52.106;21.024;2023-04-23T00:00:27;100185.56;;;7.67;57.19
22031;BME280;11179;52.106;21.024;2023-04-23T00:02:55;100185.47;;;7.62;57.01
22031;BME280;11179;52.106;21.024;2023-04-23T00:05:26;100170.88;;;7.56;57.23
22031;BME280;11179;52.106;21.024;2023-04-23T00:07:52;100185.38;;;7.57;57.40
22031;BME280;11179;52.106;21.024;2023-04-23T00:10:18;100179.56;;;7.53;57.21
22031;BME280;11179;52.106;21.024;2023-04-23T00:12:43;100182.19;;;7.48;57.66
22031;BME280;11179;52.106;21.024;2023-04-23T00:15:10;100181.03;;;7.44;57.70
22031;BME280;11179;52.106;21.024;2023-04-23T00:17:35;100178.19;;;7.39;57.66
22031;BME280;11179;52.106;21.024;2023-04-23T00:20:01;100178.78;;;7.41;57.85
22031;BME280;11179;52.106;21.024;2023-04-23T00:22:26;100176.28;;;7.40;57.80
22031;BME280;11179;52.106;21.024;2023-04-23T00:24:52;100168.91;;;7.40;57.87
22031;BME280;11179;52.106;21.024;2023-04-23T00:27:17;100174.63;;;7.39;58.24
22031;BME280;11179;52.106;21.024;2023-04-23T00:29:45;100167.13;;;7.34;58.19
22031;BME280;11179;52.106;21.024;2023-04-23T00:32:10;100168.81;;;7.35;58.17
22031;BME280;11179;52.106;21.024;2023-04-23T00:34:36;100162.75;;;7.33;58.13
22031;BME280;11179;52.106;21.024;2023-04-23T00:37:01;100166.47;;;7.27;58.36
22031;BME280;11179;52.106;21.024;2023-04-23T00:39:30;100166.69;;;7.25;58.40
22031;BME280;11179;52.106;21.024;2023-04-23T00:41:56;100162.19;;;7.19;58.63
22031;BME280;11179;52.106;21.024;2023-04-23T00:44:22;100166.25;;;7.17;58.35
22031;BME280;11179;52.106;21.024;2023-04-23T00:46:48;100164.91;;;7.19;58.77
22031;BME280;11179;52.106;21.024;2023-04-23T00:49:14;100173.38;;;7.18;58.76
22031;BME280;11179;52.106;21.024;2023-04-23T00:51:39;100173.03;;;7.14;58.66
22031;BME280;11179;52.106;21.024;2023-04-23T00:54:05;100174.09;;;7.13;58.93
22031;BME280;11179;52.106;21.024;2023-04-23T00:56:32;100159.50;;;7.08;58.95
22031;BME280;11179;52.106;21.024;2023-04-23T00:58:57;100157.25;;;7.05;58.88
22031;BME280;11179;52.106;21.024;2023-04-23T01:01:22;100177.53;;;7.09;58.88
22031;BME280;11179;52.106;21.024;2023-04-23T01:03:48;100169.81;;;7.06;59.40
22031;BME280;11179;52.106;21.024;2023-04-23T01:06:15;100159.28;;;6.98;59.34
22031;BME280;11179;52.106;21.024;2023-04-23T01:08:45;100168.06;;;7.00;59.36
22031;BME280;11179;52.106;21.024;2023-04-23T01:11:15;100172.91;;;6.98;59.54
22031;BME280;11179;52.106;21.024;2023-04-23T01:13:41;100172.91;;;6.98;59.52
22031;BME280;11179;52.106;21.024;2023-04-23T01:16:07;100171.41;;;6.90;59.60
22031;BME280;11179;52.106;21.024;2023-04-23T01:18:32;100166.41;;;6.87;59.42
22031;BME280;11179;52.106;21.024;2023-04-23T01:20:58;100177.47;;;6.92;59.73
22031;BME280;11179;52.106;21.024;2023-04-23T01:23:24;100167.94;;;6.83;59.40
22031;BME280;11179;52.106;21.024;2023-04-23T01:25:51;100167.59;;;6.79;59.62
22031;BME280;11179;52.106;21.024;2023-04-23T01:28:17;100178.28;;;6.81;59.50
22031;BME280;11179;52.106;21.024;2023-04-23T01:30:42;100163.94;;;6.74;59.93
22031;BME280;11179;52.106;21.024;2023-04-23T01:33:09;100172.47;;;6.77;60.03
22031;BME280;11179;52.106;21.024;2023-04-23T01:35:35;100160.25;;;6.68;59.84
22031;BME280;11179;52.106;21.024;2023-04-23T01:38:02;100173.19;;;6.73;59.94
22031;BME280;11179;52.106;21.024;2023-04-23T01:40:28;100167.38;;;6.69;59.96
22031;BME280;11179;52.106;21.024;2023-04-23T01:42:53;100157.41;;;6.63;59.89
22031;BME280;11179;52.106;21.024;2023-04-23T01:45:19;100173.88;;;6.68;60.20
22031;BME280;11179;52.106;21.024;2023-04-23T01:47:45;100167.72;;;6.61;60.10
22031;BME280;11179;52.106;21.024;2023-04-23T01:50:12;100174.03;;;6.62;60.30
22031;BME280;11179;52.106;21.024;2023-04-23T01:52:37;100172.47;;;6.54;60.29
22031;BME280;11179;52.106;21.024;2023-04-23T01:55:03;100176.03;;;6.54;60.36
22031;BME280;11179;52.106;21.024;2023-04-23T01:57:28;100166.53;;;6.45;60.57
22031;BME280;11179;52.106;21.024;2023-04-23T02:00:06;100175.78;;;6.44;60.65
22031;BME280;11179;52.106;21.024;2023-04-23T02:02:33;100174.59;;;6.40;60.78
22031;BME280;11179;52.106;21.024;2023-04-23T02:05:00;100181.69;;;6.41;60.74
22031;BME280;11179;52.106;21.024;2023-04-23T02:07:30;100163.41;;;6.30;60.87
22031;BME280;11179;52.106;21.024;2023-04-23T02:09:55;100178.03;;;6.36;60.89
22031;BME280;11179;52.106;21.024;2023-04-23T02:12:21;100162.47;;;6.25;61.00
22031;BME280;11179;52.106;21.024;2023-04-23T02:14:46;100178.94;;;6.30;61.08
22031;BME280;11179;52.106;21.024;2023-04-23T02:17:11;100183.31;;;6.31;61.20
22031;BME280;11179;52.106;21.024;2023-04-23T02:19:36;100175.13;;;6.31;61.39
22031;BME280;11179;52.106;21.024;2023-04-23T02:22:02;100166.72;;;6.20;61.34
22031;BME280;11179;52.106;21.024;2023-04-23T02:24:27;100177.16;;;6.23;61.37
22031;BME280;11179;52.106;21.024;2023-04-23T02:26:52;100170.50;;;6.19;61.42
22031;BME280;11179;52.106;21.024;2023-04-23T02:29:18;100163.13;;;6.08;61.50
22031;BME280;11179;52.106;21.024;2023-04-23T02:31:43;100171.91;;;6.10;61.77
22031;BME280;11179;52.106;21.024;2023-04-23T02:34:08;100170.03;;;6.11;61.97
22031;BME280;11179;52.106;21.024;2023-04-23T02:36:34;100172.38;;;6.07;62.16
22031;BME280;11179;52.106;21.024;2023-04-23T02:39:00;100177.13;;;6.12;61.92
22031;BME280;11179;52.106;21.024;2023-04-23T02:41:26;100174.41;;;6.12;62.12
22031;BME280;11179;52.106;21.024;2023-04-23T02:43:51;100171.44;;;6.13;62.00
22031;BME280;11179;52.106;21.024;2023-04-23T02:46:16;100161.03;;;6.10;62.03
22031;BME280;11179;52.106;21.024;2023-04-23T02:48:41;100168.38;;;6.10;62.27
22031;BME280;11179;52.106;21.024;2023-04-23T02:51:09;100165.88;;;6.08;62.21
22031;BME280;11179;52.106;21.024;2023-04-23T02:53:34;100168.00;;;6.06;62.24
22031;BME280;11179;52.106;21.024;2023-04-23T02:56:00;100173.44;;;6.06;62.35
22031;BME280;11179;52.106;21.024;2023-04-23T02:58:27;100170.34;;;6.03;62.59
22031;BME280;11179;52.106;21.024;2023-04-23T03:00:53;100155.63;;;5.92;62.62
22031;BME280;11179;52.106;21.024;2023-04-23T03:03:18;100172.13;;;5.97;62.74
22031;BME280;11179;52.106;21.024;2023-04-23T03:05:44;100163.81;;;5.92;62.67
22031;BME280;11179;52.106;21.024;2023-04-23T03:08:09;100169.63;;;5.96;62.55
22031;BME280;11179;52.106;21.024;2023-04-23T03:10:34;100154.09;;;5.84;62.71
22031;BME280;11179;52.106;21.024;2023-04-23T03:12:59;100163.81;;;5.92;62.61
22031;BME280;11179;52.106;21.024;2023-04-23T03:15:25;100168.66;;;5.90;62.65
22031;BME280;11179;52.106;21.024;2023-04-23T03:17:51;100165.94;;;5.90;62.87
22031;BME280;11179;52.106;21.024;2023-04-23T03:20:18;100155.97;;;5.84;62.91
22031;BME280;11179;52.106;21.024;2023-04-23T03:22:43;100169.38;;;5.85;62.91
22031;BME280;11179;52.106;21.024;2023-04-23T03:25:10;100161.88;;;5.81;62.93
22031;BME280;11179;52.106;21.024;2023-04-23T03:27:37;100149.31;;;5.80;63.08
22031;BME280;11179;52.106;21.024;2023-04-23T03:30:03;100161.44;;;5.84;63.27
22031;BME280;11179;52.106;21.024;2023-04-23T03:32:29;100159.28;;;5.86;63.36
22031;BME280;11179;52.106;21.024;2023-04-23T03:34:54;100162.38;;;5.90;63.41
22031;BME280;11179;52.106;21.024;2023-04-23T03:37:19;100163.81;;;5.92;63.38
22031;BME280;11179;52.106;21.024;2023-04-23T03:39:45;100154.91;;;5.85;63.31
22031;BME280;11179;52.106;21.024;2023-04-23T03:42:10;100152.91;;;5.92;63.48
22031;BME280;11179;52.106;21.024;2023-04-23T03:44:35;100157.44;;;5.98;63.27
22031;BME280;11179;52.106;21.024;2023-04-23T03:47:01;100158.28;;;5.99;63.70
22031;BME280;11179;52.106;21.024;2023-04-23T03:49:26;100146.53;;;5.98;63.58
22031;BME280;11179;52.106;21.024;2023-04-23T03:51:51;100147.72;;;6.02;63.62
22031;BME280;11179;52.106;21.024;2023-04-23T03:54:17;100154.72;;;6.10;63.63
22031;BME280;11179;52.106;21.024;2023-04-23T03:56:43;100155.56;;;6.22;63.46
22031;BME280;11179;52.106;21.024;2023-04-23T03:59:08;100143.94;;;6.27;63.62
22031;BME280;11179;52.106;21.024;2023-04-23T04:01:34;100152.53;;;6.53;63.58
22031;BME280;11179;52.106;21.024;2023-04-23T04:04:00;100162.13;;;6.79;63.77
22031;BME280;11179;52.106;21.024;2023-04-23T04:06:25;100155.09;;;7.07;63.58
22031;BME280;11179;52.106;21.024;2023-04-23T04:08:51;100161.41;;;7.47;63.38
22031;BME280;11179;52.106;21.024;2023-04-23T04:11:16;100157.13;;;7.80;62.85
22031;BME280;11179;52.106;21.024;2023-04-23T04:13:41;100162.06;;;8.11;62.46
22031;BME280;11179;52.106;21.024;2023-04-23T04:16:07;100148.84;;;8.37;61.70
22031;BME280;11179;52.106;21.024;2023-04-23T04:18:32;100154.41;;;8.80;61.36
22031;BME280;11179;52.106;21.024;2023-04-23T04:20:57;100151.84;;;9.12;60.46
22031;BME280;11179;52.106;21.024;2023-04-23T04:23:23;100154.19;;;9.47;59.89
22031;BME280;11179;52.106;21.024;2023-04-23T04:25:48;100148.75;;;9.74;59.27
22031;BME280;11179;52.106;21.024;2023-04-23T04:28:15;100159.94;;;10.21;58.61
22031;BME280;11179;52.106;21.024;2023-04-23T04:30:40;100149.50;;;10.50;57.92
22031;BME280;11179;52.106;21.024;2023-04-23T04:33:06;100148.94;;;10.90;57.04
22031;BME280;11179;52.106;21.024;2023-04-23T04:35:33;100148.63;;;11.29;56.50
22031;BME280;11179;52.106;21.024;2023-04-23T04:37:58;100150.91;;;11.57;55.75
22031;BME280;11179;52.106;21.024;2023-04-23T04:40:24;100144.94;;;11.80;54.78
22031;BME280;11179;52.106;21.024;2023-04-23T04:42:50;100148.25;;;12.13;54.31
22031;BME280;11179;52.106;21.024;2023-04-23T04:45:17;100153.00;;;12.48;53.27
22031;BME280;11179;52.106;21.024;2023-04-23T04:47:43;100133.41;;;12.75;52.66
22031;BME280;11179;52.106;21.024;2023-04-23T04:50:09;100147.66;;;13.17;52.15
22031;BME280;11179;52.106;21.024;2023-04-23T04:52:35;100156.59;;;13.53;51.13
22031;BME280;11179;52.106;21.024;2023-04-23T04:55:00;100154.56;;;13.79;50.48
22031;BME280;11179;52.106;21.024;2023-04-23T04:57:26;100143.31;;;14.10;49.89
22031;BME280;11179;52.106;21.024;2023-04-23T04:59:51;100144.84;;;14.60;49.20
22031;BME280;11179;52.106;21.024;2023-04-23T05:02:16;100144.34;;;14.87;48.29
22031;BME280;11179;52.106;21.024;2023-04-23T05:04:42;100143.56;;;15.05;47.48
22031;BME280;11179;52.106;21.024;2023-04-23T05:07:07;100140.22;;;15.08;46.88
22031;BME280;11179;52.106;21.024;2023-04-23T05:09:32;100135.22;;;15.10;46.42
22031;BME280;11179;52.106;21.024;2023-04-23T05:11:58;100134.88;;;15.17;46.03
22031;BME280;11179;52.106;21.024;2023-04-23T05:14:23;100142.69;;;15.33;45.40
22031;BME280;11179;52.106;21.024;2023-04-23T05:16:50;100137.63;;;15.64;44.87
22031;BME280;11179;52.106;21.024;2023-04-23T05:19:16;100144.22;;;15.87;44.12
22031;BME280;11179;52.106;21.024;2023-04-23T05:21:41;100138.97;;;16.23;43.59
22031;BME280;11179;52.106;21.024;2023-04-23T05:24:06;100142.03;;;16.54;42.96
22031;BME280;11179;52.106;21.024;2023-04-23T05:26:32;100132.31;;;16.89;42.31
22031;BME280;11179;52.106;21.024;2023-04-23T05:28:57;100136.34;;;17.24;41.61
22031;BME280;11179;52.106;21.024;2023-04-23T05:31:22;100135.22;;;17.52;41.12
22031;BME280;11179;52.106;21.024;2023-04-23T05:33:48;100135.19;;;17.80;40.37
22031;BME280;11179;52.106;21.024;2023-04-23T05:36:13;100133.69;;;17.96;39.69
22031;BME280;11179;52.106;21.024;2023-04-23T05:38:38;100139.13;;;18.01;39.40
22031;BME280;11179;52.106;21.024;2023-04-23T05:41:04;100135.09;;;18.07;39.06
22031;BME280;11179;52.106;21.024;2023-04-23T05:43:29;100134.53;;;17.97;38.20
22031;BME280;11179;52.106;21.024;2023-04-23T05:45:54;100136.00;;;18.16;38.34
22031;BME280;11179;52.106;21.024;2023-04-23T05:48:20;100134.59;;;18.27;37.33
22031;BME280;11179;52.106;21.024;2023-04-23T05:50:45;100142.91;;;18.63;37.62
22031;BME280;11179;52.106;21.024;2023-04-23T05:53:11;100134.75;;;18.98;37.54
22031;BME280;11179;52.106;21.024;2023-04-23T05:55:36;100131.03;;;19.03;36.57
22031;BME280;11179;52.106;21.024;2023-04-23T05:58:02;100136.06;;;19.31;36.57
22031;BME280;11179;52.106;21.024;2023-04-23T06:00:27;100128.00;;;19.69;36.65
22031;BME280;11179;52.106;21.024;2023-04-23T06:02:53;100126.06;;;20.13;36.19
22031;BME280;11179;52.106;21.024;2023-04-23T06:05:18;100124.25;;;20.43;35.21
22031;BME280;11179;52.106;21.024;2023-04-23T06:07:43;100118.63;;;20.78;34.48
22031;BME280;11179;52.106;21.024;2023-04-23T06:10:09;100122.56;;;20.85;33.80
22031;BME280;11179;52.106;21.024;2023-04-23T06:12:35;100125.97;;;20.99;33.54
22031;BME280;11179;52.106;21.024;2023-04-23T06:15:04;100123.63;;;21.10;33.33
22031;BME280;11179;52.106;21.024;2023-04-23T06:17:30;100130.22;;;21.35;32.75
22031;BME280;11179;52.106;21.024;2023-04-23T06:19:55;100128.53;;;21.51;32.77
22031;BME280;11179;52.106;21.024;2023-04-23T06:22:20;100125.59;;;21.77;32.71
22031;BME280;11179;52.106;21.024;2023-04-23T06:24:46;100127.94;;;21.96;32.63
22031;BME280;11179;52.106;21.024;2023-04-23T06:27:12;100128.34;;;22.06;31.52
22031;BME280;11179;52.106;21.024;2023-04-23T06:29:37;100126.06;;;22.00;31.15
22031;BME280;11179;52.106;21.024;2023-04-23T06:32:02;100122.06;;;22.09;31.16
22031;BME280;11179;52.106;21.024;2023-04-23T06:34:29;100122.75;;;22.27;30.76
22031;BME280;11179;52.106;21.024;2023-04-23T06:36:54;100117.94;;;22.48;30.55
22031;BME280;11179;52.106;21.024;2023-04-23T06:39:19;100113.25;;;22.73;30.65
22031;BME280;11179;52.106;21.024;2023-04-23T06:41:45;100129.31;;;22.97;30.00
22031;BME280;11179;52.106;21.024;2023-04-23T06:44:10;100114.16;;;23.23;29.86
22031;BME280;11179;52.106;21.024;2023-04-23T06:46:36;100117.22;;;23.42;29.41
22031;BME280;11179;52.106;21.024;2023-04-23T06:49:01;100120.09;;;23.57;29.03
22031;BME280;11179;52.106;21.024;2023-04-23T06:51:27;100121.72;;;23.58;29.32
22031;BME280;11179;52.106;21.024;2023-04-23T06:53:52;100107.34;;;23.84;28.62
22031;BME280;11179;52.106;21.024;2023-04-23T06:56:18;100107.34;;;23.84;28.53
22031;BME280;11179;52.106;21.024;2023-04-23T06:58:43;100104.47;;;24.21;28.39
22031;BME280;11179;52.106;21.024;2023-04-23T07:01:08;100112.22;;;24.68;28.15
22031;BME280;11179;52.106;21.024;2023-04-23T07:03:35;100116.88;;;24.91;27.38
22031;BME280;11179;52.106;21.024;2023-04-23T07:06:01;100109.44;;;24.83;26.60
22031;BME280;11179;52.106;21.024;2023-04-23T07:08:26;100098.88;;;24.65;26.70
22031;BME280;11179;52.106;21.024;2023-04-23T07:10:52;100093.19;;;24.77;26.15
22031;BME280;11179;52.106;21.024;2023-04-23T07:13:17;100102.28;;;24.42;26.02
22031;BME280;11179;52.106;21.024;2023-04-23T07:15:43;100107.91;;;24.42;26.51
22031;BME280;11179;52.106;21.024;2023-04-23T07:18:08;100107.81;;;24.82;26.56
22031;BME280;11179;52.106;21.024;2023-04-23T07:20:34;100108.03;;;25.05;26.49
22031;BME280;11179;52.106;21.024;2023-04-23T07:23:00;100094.91;;;25.09;25.36
22031;BME280;11179;52.106;21.024;2023-04-23T07:25:25;100099.69;;;25.09;25.14
22031;BME280;11179;52.106;21.024;2023-04-23T07:27:52;100097.91;;;25.16;25.21
22031;BME280;11179;52.106;21.024;2023-04-23T07:30:18;100101.59;;;25.20;24.60
22031;BME280;11179;52.106;21.024;2023-04-23T07:32:44;100095.25;;;25.23;24.97
22031;BME280;11179;52.106;21.024;2023-04-23T07:35:09;100094.25;;;25.31;25.14
22031;BME280;11179;52.106;21.024;2023-04-23T07:37:36;100093.72;;;25.10;24.70
22031;BME280;11179;52.106;21.024;2023-04-23T07:40:02;100094.69;;;24.86;24.28
22031;BME280;11179;52.106;21.024;2023-04-23T07:42:29;100076.84;;;24.94;24.67
22031;BME280;11179;52.106;21.024;2023-04-23T07:44:54;100086.66;;;25.01;25.02
22031;BME280;11179;52.106;21.024;2023-04-23T07:47:20;100084.22;;;24.99;24.56
22031;BME280;11179;52.106;21.024;2023-04-23T07:49:45;100089.88;;;24.87;24.97
22031;BME280;11179;52.106;21.024;2023-04-23T07:52:10;100087.72;;;25.27;24.46
22031;BME280;11179;52.106;21.024;2023-04-23T07:54:36;100090.09;;;25.25;23.97
22031;BME280;11179;52.106;21.024;2023-04-23T07:57:01;100093.81;;;25.29;23.66
22031;BME280;11179;52.106;21.024;2023-04-23T07:59:27;100090.72;;;25.35;23.79
22031;BME280;11179;52.106;21.024;2023-04-23T08:01:52;100089.88;;;25.50;23.82
22031;BME280;11179;52.106;21.024;2023-04-23T08:04:17;100081.59;;;25.73;23.89
22031;BME280;11179;52.106;21.024;2023-04-23T08:06:43;100078.13;;;25.79;24.13
22031;BME280;11179;52.106;21.024;2023-04-23T08:09:08;100076.38;;;26.10;23.68
22031;BME280;11179;52.106;21.024;2023-04-23T08:11:33;100076.31;;;26.25;23.52
22031;BME280;11179;52.106;21.024;2023-04-23T08:13:59;100065.78;;;26.03;22.95
22031;BME280;11179;52.106;21.024;2023-04-23T08:16:25;100061.56;;;25.93;23.29
22031;BME280;11179;52.106;21.024;2023-04-23T08:18:51;100064.44;;;25.97;23.91
22031;BME280;11179;52.106;21.024;2023-04-23T08:21:16;100074.00;;;26.12;23.58
22031;BME280;11179;52.106;21.024;2023-04-23T08:23:41;100065.94;;;25.91;23.10
22031;BME280;11179;52.106;21.024;2023-04-23T08:26:06;100073.94;;;26.08;23.83
22031;BME280;11179;52.106;21.024;2023-04-23T08:28:32;100061.88;;;26.46;23.36
22031;BME280;11179;52.106;21.024;2023-04-23T08:30:57;100060.84;;;26.35;22.19
22031;BME280;11179;52.106;21.024;2023-04-23T08:33:22;100072.44;;;26.14;21.93
22031;BME280;11179;52.106;21.024;2023-04-23T08:35:48;100058.09;;;25.81;22.50
22031;BME280;11179;52.106;21.024;2023-04-23T08:38:13;100063.34;;;25.82;22.39
22031;BME280;11179;52.106;21.024;2023-04-23T08:40:40;100065.06;;;25.71;22.38
22031;BME280;11179;52.106;21.024;2023-04-23T08:43:19;100066.88;;;25.79;21.93
22031;BME280;11179;52.106;21.024;2023-04-23T08:45:46;100072.88;;;25.97;22.40
22031;BME280;11179;52.106;21.024;2023-04-23T08:48:12;100056.81;;;25.97;22.72
22031;BME280;11179;52.106;21.024;2023-04-23T08:50:41;100056.81;;;26.17;23.02
22031;BME280;11179;52.106;21.024;2023-04-23T08:53:08;100039.81;;;26.29;22.17
22031;BME280;11179;52.106;21.024;2023-04-23T08:55:34;100056.41;;;26.34;22.21
22031;BME280;11179;52.106;21.024;2023-04-23T08:58:01;100054.16;;;26.24;21.96
22031;BME280;11179;52.106;21.024;2023-04-23T09:00:30;100039.50;;;26.15;21.70
22031;BME280;11179;52.106;21.024;2023-04-23T09:02:57;100042.25;;;25.92;22.02
22031;BME280;11179;52.106;21.024;2023-04-23T09:05:22;100041.34;;;26.07;22.72
22031;BME280;11179;52.106;21.024;2023-04-23T09:07:47;100038.41;;;26.19;21.98
22031;BME280;11179;52.106;21.024;2023-04-23T09:10:13;100030.75;;;26.00;21.37
22031;BME280;11179;52.106;21.024;2023-04-23T09:12:41;100035.81;;;25.91;21.62
22031;BME280;11179;52.106;21.024;2023-04-23T09:15:08;100029.50;;;25.98;22.62
22031;BME280;11179;52.106;21.024;2023-04-23T09:17:41;100025.78;;;26.13;22.34
22031;BME280;11179;52.106;21.024;2023-04-23T09:20:08;100039.69;;;26.22;22.07
22031;BME280;11179;52.106;21.024;2023-04-23T09:22:50;100021.66;;;26.26;21.61
22031;BME280;11179;52.106;21.024;2023-04-23T09:25:21;100037.59;;;26.19;22.42
22031;BME280;11179;52.106;21.024;2023-04-23T09:27:48;100039.56;;;26.37;22.30
22031;BME280;11179;52.106;21.024;2023-04-23T09:30:15;100024.09;;;26.47;21.93
22031;BME280;11179;52.106;21.024;2023-04-23T09:32:41;100025.97;;;26.62;21.56
22031;BME280;11179;52.106;21.024;2023-04-23T09:35:09;100031.41;;;26.13;21.13
22031;BME280;11179;52.106;21.024;2023-04-23T09:37:34;100031.66;;;25.85;21.12
22031;BME280;11179;52.106;21.024;2023-04-23T09:40:02;100028.69;;;25.78;21.40
22031;BME280;11179;52.106;21.024;2023-04-23T09:42:29;100025.34;;;25.73;22.11
22031;BME280;11179;52.106;21.024;2023-04-23T09:44:59;100016.53;;;25.74;21.36
22031;BME280;11179;52.106;21.024;2023-04-23T09:47:25;100012.91;;;25.74;22.12
22031;BME280;11179;52.106;21.024;2023-04-23T09:49:51;100012.72;;;25.82;22.03
22031;BME280;11179;52.106;21.024;2023-04-23T09:52:17;100019.59;;;25.50;21.67
22031;BME280;11179;52.106;21.024;2023-04-23T09:54:42;100010.25;;;25.46;22.02
22031;BME280;11179;52.106;21.024;2023-04-23T09:57:11;100000.38;;;25.52;22.03
22031;BME280;11179;52.106;21.024;2023-04-23T09:59:36;100001.34;;;25.59;21.32
22031;BME280;11179;52.106;21.024;2023-04-23T10:02:03;100004.63;;;25.61;22.09
22031;BME280;11179;52.106;21.024;2023-04-23T10:04:29;99995.09;;;25.66;21.61
22031;BME280;11179;52.106;21.024;2023-04-23T10:07:03;99999.22;;;25.37;21.07
22031;BME280;11179;52.106;21.024;2023-04-23T10:09:30;99989.69;;;25.07;21.69
22031;BME280;11179;52.106;21.024;2023-04-23T10:11:57;99984.63;;;24.96;21.47
22031;BME280;11179;52.106;21.024;2023-04-23T10:14:27;99984.53;;;24.93;22.37
22031;BME280;11179;52.106;21.024;2023-04-23T10:16:58;99976.09;;;25.09;22.17
22031;BME280;11179;52.106;21.024;2023-04-23T10:19:28;99972.97;;;25.29;21.82
22031;BME280;11179;52.106;21.024;2023-04-23T10:21:57;99981.78;;;25.47;22.93
22031;BME280;11179;52.106;21.024;2023-04-23T10:24:28;99974.34;;;25.55;22.11
22031;BME280;11179;52.106;21.024;2023-04-23T10:26:59;99969.56;;;25.75;22.59
22031;BME280;11179;52.106;21.024;2023-04-23T10:29:31;99974.38;;;25.74;22.54
22031;BME280;11179;52.106;21.024;2023-04-23T10:32:01;99966.63;;;25.52;21.81
22031;BME280;11179;52.106;21.024;2023-04-23T10:34:28;99969.41;;;25.32;21.75
22031;BME280;11179;52.106;21.024;2023-04-23T10:36:55;99971.03;;;24.99;22.81
22031;BME280;11179;52.106;21.024;2023-04-23T10:39:26;99965.22;;;24.91;23.43
22031;BME280;11179;52.106;21.024;2023-04-23T10:41:53;99961.88;;;24.86;21.93
22031;BME280;11179;52.106;21.024;2023-04-23T10:44:19;99959.34;;;24.81;22.55
22031;BME280;11179;52.106;21.024;2023-04-23T10:46:54;99959.28;;;24.93;22.51
22031;BME280;11179;52.106;21.024;2023-04-23T10:49:25;99955.97;;;25.07;22.21
22031;BME280;11179;52.106;21.024;2023-04-23T10:52:11;99939.38;;;25.17;21.88
22031;BME280;11179;52.106;21.024;2023-04-23T10:54:40;99936.38;;;25.26;22.38
22031;BME280;11179;52.106;21.024;2023-04-23T10:57:07;99938.59;;;25.36;21.99
22031;BME280;11179;52.106;21.024;2023-04-23T10:59:34;99938.00;;;25.27;21.81
22031;BME280;11179;52.106;21.024;2023-04-23T11:02:10;99942.22;;;24.86;21.31
22031;BME280;11179;52.106;21.024;2023-04-23T11:05:03;99932.91;;;24.50;21.36
22031;BME280;11179;52.106;21.024;2023-04-23T11:07:33;99933.91;;;24.42;22.39
22031;BME280;11179;52.106;21.024;2023-04-23T11:10:10;99936.19;;;24.52;22.61
22031;BME280;11179;52.106;21.024;2023-04-23T11:12:38;99934.75;;;24.58;22.93
22031;BME280;11179;52.106;21.024;2023-04-23T11:15:14;99936.38;;;24.59;23.33
22031;BME280;11179;52.106;21.024;2023-04-23T11:20:09;99931.75;;;24.67;22.48
22031;BME280;11179;52.106;21.024;2023-04-23T11:22:36;99934.03;;;24.61;22.94
22031;BME280;11179;52.106;21.024;2023-04-23T11:25:03;99918.25;;;24.57;22.61
22031;BME280;11179;52.106;21.024;2023-04-23T11:27:29;99909.22;;;24.48;22.12
22031;BME280;11179;52.106;21.024;2023-04-23T11:29:56;99916.53;;;24.37;23.01
22031;BME280;11179;52.106;21.024;2023-04-23T11:32:22;99915.78;;;24.24;22.45
22031;BME280;11179;52.106;21.024;2023-04-23T11:34:48;99913.34;;;24.07;22.14
22031;BME280;11179;52.106;21.024;2023-04-23T11:37:18;99910.66;;;23.82;22.60
22031;BME280;11179;52.106;21.024;2023-04-23T11:39:45;99911.09;;;23.84;22.75
22031;BME280;11179;52.106;21.024;2023-04-23T11:42:12;99911.09;;;23.84;23.23
22031;BME280;11179;52.106;21.024;2023-04-23T11:44:39;99908.50;;;23.91;23.30
22031;BME280;11179;52.106;21.024;2023-04-23T11:47:13;99912.03;;;23.88;23.49
22031;BME280;11179;52.106;21.024;2023-04-23T11:49:39;99898.81;;;23.89;22.96
22031;BME280;11179;52.106;21.024;2023-04-23T11:52:07;99896.72;;;23.86;22.84
22031;BME280;11179;52.106;21.024;2023-04-23T11:54:32;99899.25;;;23.75;22.36
22031;BME280;11179;52.106;21.024;2023-04-23T11:56:58;99892.38;;;23.73;22.87
22031;BME280;11179;52.106;21.024;2023-04-23T11:59:24;99897.25;;;23.76;22.40
22031;BME280;11179;52.106;21.024;2023-04-23T12:01:53;99889.03;;;23.67;22.48
22031;BME280;11179;52.106;21.024;2023-04-23T12:04:23;99894.81;;;23.74;23.36
22031;BME280;11179;52.106;21.024;2023-04-23T12:06:49;99897.38;;;23.79;23.97
22031;BME280;11179;52.106;21.024;2023-04-23T12:09:17;99895.19;;;23.88;23.68
22031;BME280;11179;52.106;21.024;2023-04-23T12:11:43;99889.50;;;23.85;23.02
22031;BME280;11179;52.106;21.024;2023-04-23T12:14:11;99890.38;;;23.73;23.57
22031;BME280;11179;52.106;21.024;2023-04-23T12:16:41;99892.28;;;23.57;22.61
22031;BME280;11179;52.106;21.024;2023-04-23T12:19:14;99894.44;;;23.48;22.81
22031;BME280;11179;52.106;21.024;2023-04-23T12:21:54;99883.34;;;23.11;23.93
22031;BME280;11179;52.106;21.024;2023-04-23T12:24:24;99878.34;;;23.05;23.58
22031;BME280;11179;52.106;21.024;2023-04-23T12:26:54;99875.69;;;22.96;22.46
22031;BME280;11179;52.106;21.024;2023-04-23T12:29:21;99872.88;;;22.84;23.74
22031;BME280;11179;52.106;21.024;2023-04-23T12:31:47;99866.00;;;22.81;23.85
22031;BME280;11179;52.106;21.024;2023-04-23T12:34:14;99869.50;;;22.78;23.34
22031;BME280;11179;52.106;21.024;2023-04-23T12:36:44;99869.75;;;22.73;23.11
22031;BME280;11179;52.106;21.024;2023-04-23T12:39:28;99859.63;;;22.69;23.54
22031;BME280;11179;52.106;21.024;2023-04-23T12:41:56;99862.28;;;22.77;23.03
22031;BME280;11179;52.106;21.024;2023-04-23T12:44:22;99867.53;;;22.79;23.44